Time;durP1;ratioP1;P1;durP2;ratioP2;P2;SDS_P1;SDS_P2;PMS_P1;PMS_P2;Temp;Humidity;BMP_temperature;BMP_pressure;BME280_temperature;BME280_humidity;BME280_pressure;Samples;Min_cycle;Max_cycle;Signal;HPM_P1;HPM_P2
2021/12/18 00:02:08;;;;;;;12.68;5.30;;;;;;;1.01;91.95;102619.03;5140845;27;20053;-53
2021/12/18 00:04:36;;;;;;;7.63;3.72;;;;;;;1.02;91.46;102620.81;5140148;27;20073;-48
2021/12/18 00:07:05;;;;;;;11.98;4.22;;;;;;;1.01;91.67;102617.38;5134318;27;20057;-53
2021/12/18 00:09:33;;;;;;;11.40;3.60;;;;;;;1.01;91.79;102621.59;5141179;27;20059;-51
2021/12/18 00:12:03;;;;;;;10.48;3.83;;;;;;;1.01;91.63;102611.38;5134346;27;20055;-49
2021/12/18 00:14:31;;;;;;;11.20;3.60;;;;;;;0.99;91.91;102616.41;5133233;27;20074;-48
2021/12/18 00:16:59;;;;;;;10.10;3.55;;;;;;;1.01;92.54;102607.16;5137190;27;20414;-49
2021/12/18 00:19:27;;;;;;;10.55;4.15;;;;;;;1.02;92.51;102606.38;5136898;27;20043;-50
2021/12/18 00:21:56;;;;;;;11.75;4.28;;;;;;;1.03;91.98;102620.00;5141094;27;20406;-52
2021/12/18 00:24:24;;;;;;;15.13;5.20;;;;;;;1.03;92.39;102615.78;5142670;27;21226;-50
2021/12/18 00:26:53;;;;;;;11.80;4.90;;;;;;;1.02;92.59;102618.25;5142358;27;20054;-50
2021/12/18 00:29:23;;;;;;;10.32;4.43;;;;;;;1.02;92.83;102603.81;5138280;27;20057;-49
2021/12/18 00:31:51;;;;;;;13.57;5.18;;;;;;;1.00;92.77;102602.84;5138351;27;20057;-49
2021/12/18 00:34:19;;;;;;;11.50;5.30;;;;;;;1.01;93.35;102612.25;5136666;27;20053;-51
2021/12/18 00:36:47;;;;;;;13.82;6.03;;;;;;;1.01;93.54;102614.81;5139209;27;20039;-53
2021/12/18 00:39:16;;;;;;;20.38;6.82;;;;;;;1.01;93.47;102612.25;5141949;27;20055;-50
2021/12/18 00:44:27;;;;;;;19.00;6.55;;;;;;;1.01;94.18;102632.69;5136206;27;20046;-49
2021/12/18 00:46:55;;;;;;;22.77;8.23;;;;;;;1.02;94.46;102634.47;5136215;27;20125;-53
2021/12/18 00:49:24;;;;;;;16.08;7.57;;;;;;;1.02;95.10;102649.78;5135799;27;20047;-52
2021/12/18 00:51:52;;;;;;;17.55;6.95;;;;;;;1.04;95.16;102647.31;5146749;27;20134;-51
2021/12/18 00:54:20;;;;;;;18.38;7.35;;;;;;;1.06;95.61;102650.88;5141348;27;20083;-51
2021/12/18 00:56:48;;;;;;;18.33;7.18;;;;;;;1.07;95.88;102643.31;5146417;27;20051;-52
2021/12/18 00:59:16;;;;;;;14.65;6.80;;;;;;;1.09;95.58;102640.84;5137518;27;20441;-52
2021/12/18 01:01:46;;;;;;;15.07;6.25;;;;;;;1.09;95.93;102641.72;5131780;27;20457;-52
2021/12/18 01:04:15;;;;;;;16.17;7.30;;;;;;;1.12;96.25;102641.03;5138689;27;20141;-53
2021/12/18 01:06:43;;;;;;;12.65;6.63;;;;;;;1.13;95.88;102647.91;5141594;27;20083;-49
2021/12/18 01:09:10;;;;;;;18.35;6.78;;;;;;;1.13;95.98;102643.69;5140628;27;20039;-53
2021/12/18 01:11:43;;;;;;;19.30;7.80;;;;;;;1.16;96.38;102643.84;5141228;27;20078;-52
2021/12/18 01:22:47;;;;;;;12.95;4.97;;;;;;;1.24;96.67;102639.22;5141323;27;20053;-52
2021/12/18 01:25:16;;;;;;;12.60;5.32;;;;;;;1.25;96.67;102646.97;5145926;27;20085;-51
2021/12/18 01:27:44;;;;;;;15.02;4.88;;;;;;;1.29;97.07;102634.38;5136585;27;20123;-49
2021/12/18 01:30:15;;;;;;;10.45;4.97;;;;;;;1.32;97.41;102644.75;5132822;27;20061;-50
2021/12/18 01:32:45;;;;;;;12.80;5.25;;;;;;;1.37;97.52;102635.69;5136895;27;20070;-46
2021/12/18 01:35:13;;;;;;;13.82;5.45;;;;;;;1.39;97.69;102635.00;5140694;27;20091;-50
2021/12/18 01:37:42;;;;;;;11.02;4.93;;;;;;;1.43;97.42;102633.50;5144661;27;20116;-51
2021/12/18 01:40:12;;;;;;;11.93;4.93;;;;;;;1.46;97.47;102631.13;5144910;27;20050;-51
2021/12/18 01:46:11;;;;;;;15.95;7.50;;;;;;;1.56;97.53;102635.97;5106130;27;20412;-48
2021/12/18 01:51:58;;;;;;;8.80;4.45;;;;;;;1.60;97.51;102630.28;5051718;28;20679;-50
2021/12/18 01:54:27;;;;;;;11.55;4.65;;;;;;;1.62;97.29;102623.59;5092837;28;21740;-52
2021/12/18 01:56:56;;;;;;;10.98;5.22;;;;;;;1.63;97.58;102610.00;5092253;28;20052;-52
2021/12/18 01:59:40;;;;;;;14.70;5.30;;;;;;;1.64;97.29;102614.31;5093852;28;20492;-49
2021/12/18 02:02:12;;;;;;;10.25;4.57;;;;;;;1.64;97.24;102614.31;5089415;28;20063;-51
2021/12/18 02:04:42;;;;;;;16.92;6.47;;;;;;;1.68;97.48;102605.16;5090484;28;20070;-47
2021/12/18 02:07:11;;;;;;;12.65;4.38;;;;;;;1.69;96.81;102605.25;5092360;28;20048;-52
2021/12/18 02:10:00;;;;;;;9.98;4.07;;;;;;;1.65;97.06;102605.88;5093676;28;20476;-48
2021/12/18 02:12:37;;;;;;;10.38;3.83;;;;;;;1.62;96.36;102605.69;5092884;28;20175;-51
2021/12/18 02:20:47;;;;;;;8.55;3.92;;;;;;;1.59;96.18;102608.06;5092905;28;20192;-52
2021/12/18 02:23:16;;;;;;;7.55;3.67;;;;;;;1.62;96.33;102610.81;5093370;28;20970;-49
2021/12/18 02:25:46;;;;;;;8.27;3.80;;;;;;;1.65;96.17;102615.22;5093263;28;20052;-47
2021/12/18 02:28:21;;;;;;;9.45;4.13;;;;;;;1.64;96.63;102604.09;5092744;28;20132;-48
2021/12/18 02:30:53;;;;;;;10.95;4.50;;;;;;;1.64;96.21;102604.09;5090963;28;20048;-51
2021/12/18 02:33:23;;;;;;;11.40;5.28;;;;;;;1.65;96.28;102595.63;5094991;28;20146;-51
2021/12/18 02:35:55;;;;;;;11.10;4.97;;;;;;;1.67;96.32;102588.94;5093268;28;20235;-50
2021/12/18 02:38:31;;;;;;;9.57;4.43;;;;;;;1.69;96.02;102582.22;5091103;28;20055;-50
2021/12/18 02:41:11;;;;;;;11.02;5.32;;;;;;;1.70;96.68;102571.22;5092746;28;20473;-52
2021/12/18 02:43:42;;;;;;;11.10;5.05;;;;;;;1.70;96.62;102571.22;5090087;28;20119;-50
2021/12/18 02:46:17;;;;;;;12.48;5.28;;;;;;;1.71;96.37;102564.44;5093977;28;20129;-50
2021/12/18 02:48:46;;;;;;;10.00;5.22;;;;;;;1.74;96.28;102557.81;5093888;28;20052;-49
2021/12/18 02:51:19;;;;;;;13.18;5.70;;;;;;;1.74;96.13;102557.81;5090909;28;20047;-50
2021/12/18 02:53:51;;;;;;;19.05;6.78;;;;;;;1.73;96.59;102558.59;5096126;28;20047;-49
2021/12/18 02:56:23;;;;;;;13.23;5.95;;;;;;;1.76;96.30;102557.91;5084773;28;20063;-49
2021/12/18 02:58:53;;;;;;;13.38;5.75;;;;;;;1.78;96.28;102562.28;5081067;28;20147;-52
2021/12/18 03:01:25;;;;;;;12.15;5.80;;;;;;;1.80;96.09;102564.94;5078732;28;20054;-49
2021/12/18 03:03:54;;;;;;;14.60;6.30;;;;;;;1.82;96.21;102563.34;5079778;28;20047;-51
2021/12/18 03:06:31;;;;;;;14.77;5.95;;;;;;;1.85;95.58;102559.28;5078661;28;20044;-49
2021/12/18 03:09:17;;;;;;;12.52;5.88;;;;;;;1.87;95.63;102552.56;5076197;28;20079;-48
2021/12/18 03:23:07;;;;;;;13.15;6.20;;;;;;;1.94;95.55;102538.44;5052955;28;20052;-50
2021/12/18 03:25:38;;;;;;;12.95;6.60;;;;;;;1.99;95.30;102546.38;5077520;28;20052;-48
2021/12/18 03:28:08;;;;;;;18.27;6.88;;;;;;;2.03;95.06;102538.94;5082119;28;20048;-49
2021/12/18 03:30:38;;;;;;;13.43;7.15;;;;;;;2.04;95.17;102530.47;5079715;28;20496;-50
2021/12/18 03:33:06;;;;;;;14.00;7.30;;;;;;;2.05;94.96;102521.13;5078245;28;20060;-52
2021/12/18 03:35:35;;;;;;;16.15;6.68;;;;;;;2.07;94.51;102525.53;5080365;28;20107;-48
2021/12/18 03:38:06;;;;;;;13.38;6.03;;;;;;;2.08;94.62;102531.53;5077887;28;20071;-51
2021/12/18 03:40:36;;;;;;;17.52;6.28;;;;;;;2.08;94.31;102536.66;5077300;28;20044;-51
2021/12/18 03:43:04;;;;;;;14.07;6.50;;;;;;;2.09;94.45;102533.31;5078178;28;20058;-51
2021/12/18 03:45:34;;;;;;;15.02;5.70;;;;;;;2.11;94.35;102521.50;5078209;28;20534;-51
2021/12/18 03:48:03;;;;;;;15.45;7.43;;;;;;;2.11;94.23;102511.25;5078619;28;20155;-50
2021/12/18 03:50:32;;;;;;;12.73;6.55;;;;;;;2.09;93.87;102515.41;5076906;28;20044;-49
2021/12/18 03:53:00;;;;;;;14.57;6.38;;;;;;;2.03;93.76;102492.03;5077720;28;20083;-48
2021/12/18 03:55:31;;;;;;;15.68;6.75;;;;;;;2.05;93.92;102505.78;5074704;28;20428;-49
2021/12/18 03:58:00;;;;;;;15.27;6.50;;;;;;;2.05;94.16;102495.56;5078040;28;20058;-50
2021/12/18 04:00:28;;;;;;;14.75;6.70;;;;;;;2.03;93.93;102502.25;5077613;28;20044;-51
2021/12/18 04:02:58;;;;;;;17.40;6.85;;;;;;;2.01;94.07;102483.41;5077861;28;20052;-51
2021/12/18 04:05:26;;;;;;;12.68;6.70;;;;;;;1.99;94.02;102480.75;5077383;28;20298;-50
2021/12/18 04:08:08;;;;;;;14.25;7.57;;;;;;;1.97;93.98;102482.34;5077236;28;20052;-50
2021/12/18 04:10:39;;;;;;;22.00;7.55;;;;;;;1.96;93.60;102490.81;5075710;28;20057;-52
2021/12/18 04:13:10;;;;;;;16.33;6.55;;;;;;;1.98;94.44;102483.22;5077107;28;20056;-48
2021/12/18 04:15:40;;;;;;;19.90;8.00;;;;;;;2.02;93.70;102487.72;5077000;28;20059;-49
2021/12/18 04:18:09;;;;;;;18.35;7.68;;;;;;;2.02;93.95;102493.72;5077301;28;20512;-50
2021/12/18 04:20:38;;;;;;;17.17;7.18;;;;;;;2.04;94.22;102494.66;5077797;28;20051;-50
2021/12/18 04:23:07;;;;;;;21.42;6.47;;;;;;;2.07;94.37;102499.94;5075363;28;20055;-49
2021/12/18 04:25:39;;;;;;;13.55;6.70;;;;;;;2.10;94.10;102499.28;5078332;28;20056;-49
2021/12/18 04:28:09;;;;;;;14.93;7.82;;;;;;;2.13;94.41;102499.44;5079339;28;20048;-47
2021/12/18 04:30:38;;;;;;;16.80;7.90;;;;;;;2.17;94.00;102492.00;5076909;28;20051;-50
2021/12/18 04:33:08;;;;;;;14.50;7.15;;;;;;;2.22;93.93;102487.13;5081104;28;20056;-51
2021/12/18 04:35:37;;;;;;;14.80;7.10;;;;;;;2.27;93.67;102488.25;5076515;28;21138;-48
2021/12/18 04:38:06;;;;;;;18.13;7.80;;;;;;;2.29;93.59;102484.09;5076960;28;20139;-51
2021/12/18 04:40:35;;;;;;;15.50;6.80;;;;;;;2.33;93.84;102478.34;5076473;28;20094;-50
2021/12/18 04:43:06;;;;;;;13.18;6.32;;;;;;;2.38;93.96;102487.13;5076625;28;20512;-53
2021/12/18 04:45:36;;;;;;;15.45;6.78;;;;;;;2.40;93.63;102470.19;5075247;28;20063;-52
2021/12/18 04:48:06;;;;;;;20.02;7.20;;;;;;;2.44;93.92;102473.78;5074907;28;20079;-51
2021/12/18 04:50:35;;;;;;;15.77;6.72;;;;;;;2.47;93.93;102466.25;5075857;28;20145;-50
2021/12/18 04:53:03;;;;;;;12.68;6.05;;;;;;;2.50;93.07;102474.97;5076630;28;20059;-51
2021/12/18 04:55:32;;;;;;;13.90;6.47;;;;;;;2.56;93.18;102465.84;5074365;28;20495;-49
2021/12/18 04:58:02;;;;;;;12.88;7.25;;;;;;;2.59;92.68;102466.88;5079272;28;20064;-50
2021/12/18 05:00:38;;;;;;;15.57;7.30;;;;;;;2.62;93.24;102468.75;5075049;28;20052;-49
2021/12/18 05:03:11;;;;;;;16.38;7.40;;;;;;;2.64;92.88;102462.03;5075564;28;20136;-51
2021/12/18 05:05:40;;;;;;;13.88;6.50;;;;;;;2.67;92.42;102469.88;5078542;28;20736;-51
2021/12/18 05:08:10;;;;;;;13.32;6.85;;;;;;;2.68;92.60;102471.63;5076894;28;20052;-53
2021/12/18 05:10:40;;;;;;;14.50;6.93;;;;;;;2.70;92.38;102464.91;5075435;28;20124;-50
2021/12/18 05:13:09;;;;;;;15.00;6.93;;;;;;;2.71;92.71;102466.66;5078619;28;20375;-51
2021/12/18 05:15:39;;;;;;;15.07;7.18;;;;;;;2.74;92.48;102466.81;5076985;28;20071;-51
2021/12/18 05:18:09;;;;;;;14.15;6.60;;;;;;;2.75;91.83;102454.09;5073418;28;20085;-51
2021/12/18 05:20:38;;;;;;;12.95;6.80;;;;;;;2.77;92.29;102443.91;5076789;28;20048;-49
2021/12/18 05:23:06;;;;;;;13.68;6.47;;;;;;;2.77;91.56;102431.13;5072280;28;20113;-49
2021/12/18 05:25:35;;;;;;;14.75;5.85;;;;;;;2.79;91.84;102444.88;5078161;28;20079;-53
2021/12/18 05:28:03;;;;;;;12.07;6.78;;;;;;;2.79;91.52;102419.25;5077338;28;20040;-52
2021/12/18 05:30:33;;;;;;;11.95;6.25;;;;;;;2.76;91.19;102399.50;5074398;28;20453;-51
2021/12/18 05:33:05;;;;;;;11.90;6.70;;;;;;;2.78;91.28;102417.50;5075491;28;20182;-50
2021/12/18 05:35:35;;;;;;;10.30;5.60;;;;;;;2.77;91.76;102410.63;5078062;28;20139;-47
2021/12/18 05:38:06;;;;;;;13.02;6.32;;;;;;;2.76;91.50;102411.44;5075908;28;20040;-50
2021/12/18 05:40:38;;;;;;;11.80;6.07;;;;;;;2.75;91.67;102402.00;5074915;28;20056;-51
2021/12/18 05:43:07;;;;;;;12.95;6.75;;;;;;;2.76;91.79;102384.13;5073436;28;20137;-49
2021/12/18 05:45:37;;;;;;;13.55;5.75;;;;;;;2.75;91.02;102381.50;5074636;28;20055;-52
2021/12/18 05:48:08;;;;;;;12.30;6.53;;;;;;;2.70;91.33;102378.72;5074564;28;20072;-49
2021/12/18 05:50:37;;;;;;;11.45;5.90;;;;;;;2.69;91.23;102376.09;5075126;28;20052;-52
2021/12/18 05:53:07;;;;;;;13.10;5.78;;;;;;;2.68;91.74;102374.31;5074999;28;20978;-49
2021/12/18 05:55:35;;;;;;;14.70;6.53;;;;;;;2.67;91.90;102372.56;5075289;28;20435;-48
2021/12/18 05:58:05;;;;;;;14.00;6.60;;;;;;;2.67;91.19;102377.69;5073173;28;20513;-47
2021/12/18 06:00:33;;;;;;;11.80;6.15;;;;;;;2.63;91.66;102375.78;5073877;28;20077;-49
2021/12/18 06:03:03;;;;;;;13.32;6.18;;;;;;;2.61;92.15;102374.81;5076741;28;20162;-48
2021/12/18 06:05:34;;;;;;;13.02;6.03;;;;;;;2.54;92.02;102374.50;5074184;28;20059;-48
2021/12/18 06:08:09;;;;;;;13.27;7.05;;;;;;;2.51;92.08;102376.91;5074422;28;20048;-51
2021/12/18 06:10:40;;;;;;;14.80;6.80;;;;;;;2.56;92.49;102379.69;5073451;28;20762;-49
2021/12/18 06:13:09;;;;;;;15.32;6.28;;;;;;;2.59;92.92;102376.41;5074643;28;20040;-49
2021/12/18 06:15:37;;;;;;;13.57;6.97;;;;;;;2.61;92.63;102382.50;5074589;28;20071;-50
2021/12/18 06:18:06;;;;;;;13.40;6.57;;;;;;;2.62;92.98;102354.41;5076187;28;20068;-52
2021/12/18 06:20:36;;;;;;;13.48;6.55;;;;;;;2.61;92.20;102362.91;5075462;28;20498;-50
2021/12/18 06:23:05;;;;;;;14.98;7.03;;;;;;;2.63;92.92;102363.84;5078121;28;20635;-53
2021/12/18 06:25:33;;;;;;;15.15;7.32;;;;;;;2.64;92.89;102364.75;5075805;28;20044;-47
2021/12/18 06:28:01;;;;;;;14.32;7.85;;;;;;;2.63;92.58;102361.28;5076938;28;20048;-47
2021/12/18 06:30:31;;;;;;;12.45;6.40;;;;;;;2.65;92.01;102358.81;5079670;28;20408;-49
2021/12/18 06:32:59;;;;;;;14.93;6.68;;;;;;;2.66;92.26;102345.22;5081760;28;20177;-50
2021/12/18 06:35:27;;;;;;;17.08;7.30;;;;;;;2.64;92.37;102351.94;5077299;28;20072;-49
2021/12/18 06:37:58;;;;;;;15.85;7.47;;;;;;;2.66;92.27;102352.88;5081210;28;20511;-48
2021/12/18 06:40:27;;;;;;;16.90;8.05;;;;;;;2.63;92.31;102343.38;5079530;28;20079;-50
2021/12/18 06:42:55;;;;;;;14.85;7.68;;;;;;;2.63;92.16;102345.06;5078414;28;20041;-48
2021/12/18 06:45:24;;;;;;;14.68;8.07;;;;;;;2.59;92.18;102338.88;5079511;28;20075;-50
2021/12/18 06:48:01;;;;;;;20.50;7.75;;;;;;;2.57;92.54;102349.84;5079962;28;20068;-44
2021/12/18 06:50:33;;;;;;;19.42;7.35;;;;;;;2.60;92.26;102345.78;5077360;28;20064;-41
2021/12/18 06:53:03;;;;;;;16.15;7.35;;;;;;;2.62;92.63;102338.19;5080565;28;20535;-44
2021/12/18 06:55:33;;;;;;;13.70;6.97;;;;;;;2.61;92.04;102338.97;5082191;28;20044;-40
2021/12/18 06:58:01;;;;;;;18.95;6.80;;;;;;;2.60;92.22;102342.31;5080305;28;20048;-40
2021/12/18 07:00:31;;;;;;;16.60;6.93;;;;;;;2.62;92.04;102333.06;5079034;28;20068;-46
2021/12/18 07:02:59;;;;;;;18.08;6.82;;;;;;;2.63;92.65;102327.13;5076846;28;20059;-45
2021/12/18 07:05:28;;;;;;;11.90;6.70;;;;;;;2.65;92.88;102328.09;5077655;28;20059;-45
2021/12/18 07:07:56;;;;;;;14.50;6.47;;;;;;;2.68;92.88;102318.00;5077499;28;20048;-45
2021/12/18 07:10:26;;;;;;;13.43;6.25;;;;;;;2.72;92.53;102307.09;5084109;28;20083;-44
2021/12/18 07:12:56;;;;;;;17.10;6.45;;;;;;;2.76;92.84;102306.44;5080997;28;20052;-44
2021/12/18 07:15:25;;;;;;;12.10;5.82;;;;;;;2.81;92.08;102302.41;5081117;28;20101;-43
2021/12/18 07:17:54;;;;;;;16.70;6.35;;;;;;;2.82;92.22;102302.50;5077363;28;20060;-43
2021/12/18 07:20:22;;;;;;;13.35;6.55;;;;;;;2.85;91.90;102307.75;5081798;28;20043;-45
2021/12/18 07:22:50;;;;;;;19.58;6.50;;;;;;;2.89;91.77;102303.66;5084404;28;20059;-42
2021/12/18 07:25:19;;;;;;;13.90;6.47;;;;;;;2.92;91.97;102298.69;5082138;28;20040;-41
2021/12/18 07:27:48;;;;;;;18.13;6.63;;;;;;;2.96;91.67;102294.56;5080678;28;20148;-43
2021/12/18 07:30:17;;;;;;;16.95;7.00;;;;;;;2.99;91.74;102290.47;5084285;28;20082;-44
2021/12/18 07:32:45;;;;;;;15.98;6.68;;;;;;;3.01;91.47;102288.84;5076460;28;20102;-45
2021/12/18 07:35:14;;;;;;;13.68;6.25;;;;;;;3.04;91.17;102272.75;5082615;28;20054;-41
2021/12/18 07:37:42;;;;;;;12.23;6.32;;;;;;;3.03;91.19;102271.88;5079097;28;20057;-43
2021/12/18 07:40:11;;;;;;;12.65;7.10;;;;;;;3.04;91.91;102275.31;5079423;28;20494;-43
2021/12/18 07:42:39;;;;;;;14.25;5.72;;;;;;;3.06;91.29;102277.13;5082934;28;20067;-41
2021/12/18 07:45:11;;;;;;;12.23;6.00;;;;;;;3.10;91.52;102278.16;5081372;28;20088;-40
2021/12/18 07:47:39;;;;;;;16.55;7.20;;;;;;;3.14;91.38;102285.22;5080827;28;20046;-40
2021/12/18 07:50:12;;;;;;;13.98;6.20;;;;;;;3.18;91.68;102276.84;5078878;28;20567;-45
2021/12/18 07:52:40;;;;;;;21.50;7.72;;;;;;;3.24;91.71;102271.13;5079040;28;20115;-45
2021/12/18 07:55:10;;;;;;;16.75;7.15;;;;;;;3.29;91.96;102274.78;5083927;28;20056;-43
2021/12/18 07:57:39;;;;;;;14.98;7.32;;;;;;;3.33;92.21;102266.41;5082178;28;20452;-43
2021/12/18 08:00:12;;;;;;;13.68;6.72;;;;;;;3.40;91.77;102247.94;5080983;28;20054;-44
2021/12/18 08:02:40;;;;;;;15.55;6.55;;;;;;;3.46;91.58;102243.97;5083581;28;20056;-43
2021/12/18 08:05:09;;;;;;;17.17;6.90;;;;;;;3.48;91.55;102233.78;5080699;28;20499;-42
2021/12/18 08:07:38;;;;;;;14.82;6.60;;;;;;;3.51;91.07;102230.47;5079608;28;20512;-46
2021/12/18 08:10:08;;;;;;;17.00;5.97;;;;;;;3.55;91.21;102222.97;5080981;28;20048;-40
2021/12/18 08:12:37;;;;;;;12.15;6.18;;;;;;;3.60;90.89;102230.88;5075149;28;20079;-39
2021/12/18 08:15:07;;;;;;;11.80;5.70;;;;;;;3.61;91.35;102210.41;5077754;28;20048;-42
2021/12/18 08:17:38;;;;;;;11.55;5.65;;;;;;;3.68;91.08;102209.03;5074955;28;20040;-40
2021/12/18 08:20:08;;;;;;;10.43;6.03;;;;;;;3.74;91.16;102204.16;5075903;28;20501;-41
2021/12/18 08:22:36;;;;;;;12.32;5.97;;;;;;;3.80;90.62;102204.41;5084857;28;20497;-40
2021/12/18 08:25:05;;;;;;;15.98;6.00;;;;;;;3.84;90.62;102195.16;5078542;28;20063;-39
2021/12/18 08:27:33;;;;;;;12.85;6.72;;;;;;;3.90;90.20;102185.16;5076410;28;20512;-45
2021/12/18 08:30:01;;;;;;;13.57;5.55;;;;;;;3.95;90.61;102178.53;5075986;28;20056;-46
2021/12/18 08:32:29;;;;;;;10.95;5.80;;;;;;;3.97;90.32;102184.59;5074645;28;20047;-46
2021/12/18 08:35:00;;;;;;;13.65;6.32;;;;;;;4.01;90.34;102171.97;5078175;28;20047;-46
2021/12/18 08:37:29;;;;;;;13.30;6.78;;;;;;;4.06;90.11;102167.88;5074248;28;20074;-44
2021/12/18 08:39:57;;;;;;;14.15;6.05;;;;;;;4.08;89.80;102170.50;5077161;28;20047;-40
2021/12/18 08:42:26;;;;;;;15.75;5.03;;;;;;;4.12;89.34;102160.44;5080456;28;20048;-41
2021/12/18 08:44:54;;;;;;;10.50;5.88;;;;;;;4.15;89.08;102161.38;5075961;28;20048;-43
2021/12/18 08:47:23;;;;;;;14.25;6.57;;;;;;;4.15;89.29;102157.13;5082429;28;20044;-41
2021/12/18 08:49:51;;;;;;;11.93;5.80;;;;;;;4.15;89.08;102151.09;5082504;28;20147;-42
2021/12/18 08:52:21;;;;;;;12.00;5.47;;;;;;;4.14;89.28;102152.78;5081352;28;20052;-43
2021/12/18 08:54:49;;;;;;;10.05;5.00;;;;;;;4.19;88.92;102163.28;5077197;28;20052;-43
2021/12/18 08:57:17;;;;;;;13.13;5.38;;;;;;;4.26;89.14;102161.00;5078717;28;20044;-43
2021/12/18 08:59:46;;;;;;;12.32;5.20;;;;;;;4.36;89.29;102158.00;5078640;28;20122;-44
2021/12/18 09:02:16;;;;;;;12.55;5.20;;;;;;;4.47;89.02;102160.09;5079647;28;20044;-43
2021/12/18 09:04:44;;;;;;;8.48;3.78;;;;;;;4.53;88.09;102165.47;5085459;28;20127;-43
2021/12/18 09:07:13;;;;;;;11.35;4.90;;;;;;;4.54;88.23;102162.09;5076375;28;20044;-48
2021/12/18 09:09:43;;;;;;;9.75;4.88;;;;;;;4.55;87.43;102169.84;5079049;28;20060;-45
2021/12/18 09:12:13;;;;;;;6.53;3.30;;;;;;;4.55;87.94;102168.97;5078376;28;20048;-44
2021/12/18 09:14:42;;;;;;;8.10;3.22;;;;;;;4.55;87.73;102163.84;5080193;28;20127;-44
2021/12/18 09:17:10;;;;;;;5.28;3.00;;;;;;;4.53;87.58;102165.47;5077733;28;20133;-45
2021/12/18 09:19:40;;;;;;;10.32;3.50;;;;;;;4.54;88.08;102167.22;5073603;28;20429;-44
2021/12/18 09:22:09;;;;;;;9.35;3.33;;;;;;;4.54;88.22;102156.94;5080892;28;20056;-43
2021/12/18 09:24:38;;;;;;;6.82;2.90;;;;;;;4.57;88.05;102154.50;5076302;28;20093;-44
2021/12/18 09:27:17;;;;;;;6.00;2.80;;;;;;;4.61;88.47;102151.22;5077770;28;20051;-45
2021/12/18 09:29:46;;;;;;;5.95;2.88;;;;;;;4.69;88.11;102148.16;5082923;28;20421;-42
2021/12/18 09:32:15;;;;;;;6.65;3.67;;;;;;;4.78;88.15;102147.63;5075001;28;20421;-41
2021/12/18 09:34:45;;;;;;;7.05;3.67;;;;;;;4.86;88.20;102130.81;5078632;28;20063;-40
2021/12/18 09:37:14;;;;;;;7.65;3.92;;;;;;;4.98;88.14;102131.25;5080129;28;20040;-44
2021/12/18 09:39:42;;;;;;;6.47;3.42;;;;;;;5.14;87.82;102121.53;5076972;28;20068;-41
2021/12/18 09:42:11;;;;;;;10.85;4.53;;;;;;;5.29;87.91;102122.09;5079252;28;20075;-46
2021/12/18 09:44:40;;;;;;;6.25;3.53;;;;;;;5.45;87.54;102103.78;5083433;28;20056;-47
2021/12/18 09:47:08;;;;;;;5.75;3.17;;;;;;;5.57;86.81;102104.19;5082029;28;20405;-41
2021/12/18 09:49:35;;;;;;;6.45;3.45;;;;;;;5.68;86.18;102097.72;5078029;28;20055;-44
2021/12/18 09:52:03;;;;;;;7.97;3.15;;;;;;;5.77;85.54;102101.44;5074092;28;20051;-43
2021/12/18 09:54:31;;;;;;;6.60;3.50;;;;;;;5.84;85.12;102103.38;5075813;28;20513;-43
2021/12/18 09:56:58;;;;;;;9.05;3.10;;;;;;;5.83;84.71;102102.50;5077979;28;20063;-41
2021/12/18 09:59:25;;;;;;;7.60;3.38;;;;;;;5.83;84.63;102087.06;5076222;28;20063;-42
2021/12/18 10:01:54;;;;;;;6.95;3.45;;;;;;;5.78;84.53;102096.34;5073275;28;20040;-44
2021/12/18 10:04:30;;;;;;;7.07;3.28;;;;;;;5.69;85.05;102104.59;5078245;28;20067;-42
2021/12/18 10:06:59;;;;;;;7.78;3.00;;;;;;;5.63;85.16;102099.25;5081888;28;20105;-43
2021/12/18 10:09:35;;;;;;;6.75;4.03;;;;;;;5.60;85.37;102094.00;5083773;28;20518;-42
2021/12/18 10:12:06;;;;;;;6.60;3.45;;;;;;;5.55;85.66;102098.13;5078732;28;20040;-40
2021/12/18 10:14:36;;;;;;;5.47;3.05;;;;;;;5.47;85.78;102097.00;5079290;28;20051;-48
2021/12/18 10:17:06;;;;;;;7.50;3.03;;;;;;;5.41;85.80;102080.50;5084231;28;20043;-49
2021/12/18 10:19:36;;;;;;;7.38;3.83;;;;;;;5.38;86.33;102096.69;5080946;28;20048;-50
2021/12/18 10:22:06;;;;;;;9.43;3.30;;;;;;;5.38;86.60;102091.56;5078016;28;20040;-51
2021/12/18 10:24:34;;;;;;;10.30;3.30;;;;;;;5.40;86.79;102095.03;5081098;28;20056;-48
2021/12/18 10:27:02;;;;;;;8.15;3.75;;;;;;;5.36;86.78;102094.06;5079186;28;20450;-53
2021/12/18 10:29:32;;;;;;;6.20;2.83;;;;;;;5.35;86.55;102076.03;5077769;28;20408;-49
2021/12/18 10:32:07;;;;;;;12.02;3.78;;;;;;;5.32;86.90;102087.06;5079383;28;20055;-48
2021/12/18 10:34:34;;;;;;;;;;;;;;;5.33;87.01;102080.22;5074838;28;20093;-52
2021/12/18 10:37:19;;;;;;;6.05;3.00;;;;;;;5.29;87.15;102080.94;5077587;28;19923;-50
2021/12/18 10:39:59;;;;;;;10.88;3.67;;;;;;;5.29;86.93;102061.25;5077530;28;20075;-49
2021/12/18 10:42:29;;;;;;;9.73;3.42;;;;;;;5.28;87.07;102050.91;5081232;28;20052;-52
2021/12/18 10:45:10;;;;;;;15.13;3.58;;;;;;;5.28;87.37;102051.78;5080478;28;20174;-51
2021/12/18 10:47:56;;;;;;;9.20;3.95;;;;;;;5.28;87.40;102044.09;5077168;28;20056;-53
2021/12/18 10:50:28;;;;;;;;;;;;;;;5.26;87.44;102044.84;5084389;28;20048;-54
2021/12/18 10:52:59;;;;;;;7.20;3.47;;;;;;;5.24;87.46;102046.50;5077369;28;19928;-55
2021/12/18 10:55:48;;;;;;;6.57;4.18;;;;;;;5.25;87.33;102037.97;5081972;28;20036;-54
2021/12/18 10:58:18;;;;;;;8.23;4.00;;;;;;;5.27;87.57;102036.31;5069307;28;20041;-55
2021/12/18 11:00:53;;;;;;;12.90;4.20;;;;;;;5.31;87.25;102022.75;5079413;28;20048;-52
2021/12/18 11:03:33;;;;;;;13.50;5.07;;;;;;;5.34;87.28;102028.00;5085596;28;20055;-54
2021/12/18 11:06:12;;;;;;;10.60;3.88;;;;;;;5.41;87.30;102040.22;5076454;28;20110;-55
2021/12/18 11:08:59;;;;;;;7.55;3.53;;;;;;;5.52;87.15;102025.13;5074994;28;20545;-52
2021/12/18 11:14:16;;;;;;;6.55;3.78;;;;;;;5.70;86.48;102008.59;5086951;28;20055;-54
2021/12/18 11:16:45;;;;;;;5.57;3.28;;;;;;;5.81;86.13;102008.09;5082720;28;20048;-53
2021/12/18 11:19:16;;;;;;;12.02;4.22;;;;;;;5.92;85.73;101993.88;5078488;28;20055;-52
2021/12/18 11:21:47;;;;;;;7.65;3.60;;;;;;;6.01;85.08;101989.00;5075908;28;20065;-54
2021/12/18 11:24:15;;;;;;;5.05;2.95;;;;;;;6.07;85.18;101999.47;5082483;28;20526;-54
2021/12/18 11:26:51;;;;;;;7.97;3.13;;;;;;;6.16;84.51;101989.44;5077799;28;20045;-53
2021/12/18 11:29:23;;;;;;;5.15;2.63;;;;;;;6.16;83.93;101979.16;5082730;28;20048;-54
2021/12/18 11:31:51;;;;;;;6.55;3.20;;;;;;;6.19;84.11;101984.41;5078544;28;20040;-53
2021/12/18 11:34:19;;;;;;;14.48;3.75;;;;;;;6.22;83.68;101997.34;5079894;28;20803;-55
2021/12/18 11:36:50;;;;;;;9.15;3.83;;;;;;;6.25;84.06;102005.19;5084487;28;20059;-56
2021/12/18 11:39:20;;;;;;;6.25;3.42;;;;;;;6.28;83.33;102002.72;5077577;28;20064;-54
2021/12/18 11:41:49;;;;;;;10.13;5.45;;;;;;;6.32;83.36;102014.84;5079643;28;20282;-55
2021/12/18 11:44:31;;;;;;;10.32;4.70;;;;;;;6.35;83.14;102000.31;5080390;28;20056;-50
2021/12/18 11:47:00;;;;;;;9.68;3.10;;;;;;;6.36;83.19;101999.50;5071231;28;20036;-49
2021/12/18 11:52:21;;;;;;;12.57;4.63;;;;;;;6.38;82.95;101992.69;5110955;27;21349;-50
2021/12/18 11:54:51;;;;;;;32.75;6.43;;;;;;;6.42;83.02;101997.09;5111699;27;20140;-50
2021/12/18 11:57:37;;;;;;;11.40;4.05;;;;;;;6.45;82.75;101994.59;5107199;27;20148;-50
2021/12/18 12:00:07;;;;;;;6.97;3.30;;;;;;;6.47;83.07;102008.38;5105287;27;20055;-52
2021/12/18 12:02:46;;;;;;;6.55;3.17;;;;;;;6.49;82.68;102004.16;5113135;28;20047;-54
2021/12/18 12:05:15;;;;;;;5.32;3.20;;;;;;;6.53;83.05;102000.84;5107102;28;20051;-50
2021/12/18 12:07:44;;;;;;;7.43;4.40;;;;;;;6.59;82.85;102006.16;5116983;27;20120;-51
2021/12/18 12:10:21;;;;;;;7.20;3.95;;;;;;;6.59;82.94;102014.75;5115276;28;20055;-49
2021/12/18 12:12:51;;;;;;;6.75;3.63;;;;;;;6.65;82.66;102003.75;5110409;28;20051;-53
2021/12/18 12:15:19;;;;;;;6.93;3.47;;;;;;;6.68;82.51;101996.09;5115370;28;20070;-49
2021/12/18 12:18:01;;;;;;;6.30;3.13;;;;;;;6.71;82.05;101996.19;5111525;28;20051;-54
2021/12/18 12:20:40;;;;;;;4.95;2.78;;;;;;;6.67;81.76;101999.50;5118495;28;20047;-53
2021/12/18 12:26:34;;;;;;;6.80;3.20;;;;;;;6.75;82.12;101992.84;5107148;27;20140;-53